sensor_id;sensor_type;location;lat;lon;timestamp;P1;durP1;ratioP1;P2;durP2;ratioP2
28834;SDS011;15969;51.536;11.884;2023-06-22T00:00:48;13.20;;;12.20;;
28834;SDS011;15969;51.536;11.884;2023-06-22T00:03:15;12.77;;;11.70;;
28834;SDS011;15969;51.536;11.884;2023-06-22T00:05:42;12.67;;;11.57;;
28834;SDS011;15969;51.536;11.884;2023-06-22T00:08:08;13.20;;;11.90;;
28834;SDS011;15969;51.536;11.884;2023-06-22T00:10:34;13.30;;;12.13;;
28834;SDS011;15969;51.536;11.884;2023-06-22T00:13:00;12.20;;;11.30;;
28834;SDS011;15969;51.536;11.884;2023-06-22T00:15:25;13.37;;;12.23;;
28834;SDS011;15969;51.536;11.884;2023-06-22T00:17:51;13.47;;;11.20;;
28834;SDS011;15969;51.536;11.884;2023-06-22T00:20:17;13.40;;;11.90;;
28834;SDS011;15969;51.536;11.884;2023-06-22T00:22:43;14.30;;;12.73;;
28834;SDS011;15969;51.536;11.884;2023-06-22T00:25:09;14.93;;;13.40;;
28834;SDS011;15969;51.536;11.884;2023-06-22T00:27:37;14.83;;;13.53;;
28834;SDS011;15969;51.536;11.884;2023-06-22T00:30:03;14.37;;;13.17;;
28834;SDS011;15969;51.536;11.884;2023-06-22T00:32:29;14.70;;;13.20;;
28834;SDS011;15969;51.536;11.884;2023-06-22T00:34:55;13.97;;;12.83;;
28834;SDS011;15969;51.536;11.884;2023-06-22T00:37:20;15.47;;;14.17;;
28834;SDS011;15969;51.536;11.884;2023-06-22T00:39:50;15.50;;;14.20;;
28834;SDS011;15969;51.536;11.884;2023-06-22T00:42:18;14.43;;;13.13;;
28834;SDS011;15969;51.536;11.884;2023-06-22T00:44:44;15.60;;;14.20;;
28834;SDS011;15969;51.536;11.884;2023-06-22T00:47:10;15.63;;;14.17;;
28834;SDS011;15969;51.536;11.884;2023-06-22T00:49:38;14.77;;;13.57;;
28834;SDS011;15969;51.536;11.884;2023-06-22T00:52:04;15.03;;;13.83;;
28834;SDS011;15969;51.536;11.884;2023-06-22T00:54:34;15.07;;;13.77;;
28834;SDS011;15969;51.536;11.884;2023-06-22T00:57:01;14.87;;;13.60;;
28834;SDS011;15969;51.536;11.884;2023-06-22T00:59:27;16.33;;;14.83;;
28834;SDS011;15969;51.536;11.884;2023-06-22T01:01:53;17.37;;;15.97;;
28834;SDS011;15969;51.536;11.884;2023-06-22T01:04:19;17.23;;;15.83;;
28834;SDS011;15969;51.536;11.884;2023-06-22T01:06:54;15.20;;;13.87;;
28834;SDS011;15969;51.536;11.884;2023-06-22T01:10:36;15.63;;;14.07;;
28834;SDS011;15969;51.536;11.884;2023-06-22T01:12:45;16.13;;;14.60;;
28834;SDS011;15969;51.536;11.884;2023-06-22T01:18:06;16.27;;;14.87;;
28834;SDS011;15969;51.536;11.884;2023-06-22T01:20:34;16.50;;;14.80;;
28834;SDS011;15969;51.536;11.884;2023-06-22T01:23:20;16.90;;;15.20;;
28834;SDS011;15969;51.536;11.884;2023-06-22T01:29:03;17.60;;;16.07;;
28834;SDS011;15969;51.536;11.884;2023-06-22T01:31:32;17.60;;;16.20;;
28834;SDS011;15969;51.536;11.884;2023-06-22T01:34:01;16.97;;;15.37;;
28834;SDS011;15969;51.536;11.884;2023-06-22T01:36:29;17.53;;;15.63;;
28834;SDS011;15969;51.536;11.884;2023-06-22T01:38:57;15.23;;;13.83;;
28834;SDS011;15969;51.536;11.884;2023-06-22T01:41:25;16.73;;;15.13;;
28834;SDS011;15969;51.536;11.884;2023-06-22T01:43:53;16.67;;;14.97;;
28834;SDS011;15969;51.536;11.884;2023-06-22T01:46:20;17.53;;;15.87;;
28834;SDS011;15969;51.536;11.884;2023-06-22T01:48:46;16.47;;;14.87;;
28834;SDS011;15969;51.536;11.884;2023-06-22T01:51:13;17.43;;;15.77;;
28834;SDS011;15969;51.536;11.884;2023-06-22T01:53:39;18.30;;;16.50;;
28834;SDS011;15969;51.536;11.884;2023-06-22T01:56:05;17.23;;;15.60;;
28834;SDS011;15969;51.536;11.884;2023-06-22T01:58:31;17.20;;;15.70;;
28834;SDS011;15969;51.536;11.884;2023-06-22T02:01:12;17.27;;;15.67;;
28834;SDS011;15969;51.536;11.884;2023-06-22T02:03:51;17.03;;;15.30;;
28834;SDS011;15969;51.536;11.884;2023-06-22T02:06:33;14.60;;;13.00;;
28834;SDS011;15969;51.536;11.884;2023-06-22T02:09:03;17.23;;;14.00;;
28834;SDS011;15969;51.536;11.884;2023-06-22T02:11:35;18.83;;;16.73;;
28834;SDS011;15969;51.536;11.884;2023-06-22T02:14:02;18.63;;;16.80;;
28834;SDS011;15969;51.536;11.884;2023-06-22T02:16:28;16.70;;;15.17;;
28834;SDS011;15969;51.536;11.884;2023-06-22T02:18:57;17.73;;;15.37;;
28834;SDS011;15969;51.536;11.884;2023-06-22T02:21:28;19.70;;;15.73;;
28834;SDS011;15969;51.536;11.884;2023-06-22T02:23:54;18.97;;;14.50;;
28834;SDS011;15969;51.536;11.884;2023-06-22T02:26:20;18.83;;;14.80;;
28834;SDS011;15969;51.536;11.884;2023-06-22T02:28:46;17.70;;;15.60;;
28834;SDS011;15969;51.536;11.884;2023-06-22T02:31:12;20.30;;;15.57;;
28834;SDS011;15969;51.536;11.884;2023-06-22T02:33:37;19.37;;;15.07;;
28834;SDS011;15969;51.536;11.884;2023-06-22T02:36:03;19.67;;;14.50;;
28834;SDS011;15969;51.536;11.884;2023-06-22T02:38:30;21.57;;;15.07;;
28834;SDS011;15969;51.536;11.884;2023-06-22T02:40:58;18.77;;;13.63;;
28834;SDS011;15969;51.536;11.884;2023-06-22T02:43:24;15.17;;;13.53;;
28834;SDS011;15969;51.536;11.884;2023-06-22T02:45:50;17.70;;;13.53;;
28834;SDS011;15969;51.536;11.884;2023-06-22T02:48:16;24.30;;;14.07;;
28834;SDS011;15969;51.536;11.884;2023-06-22T02:50:41;16.10;;;14.00;;
28834;SDS011;15969;51.536;11.884;2023-06-22T02:53:07;20.37;;;14.53;;
28834;SDS011;15969;51.536;11.884;2023-06-22T02:55:33;15.43;;;13.90;;
28834;SDS011;15969;51.536;11.884;2023-06-22T02:57:58;19.53;;;14.23;;
28834;SDS011;15969;51.536;11.884;2023-06-22T03:00:24;18.40;;;13.60;;
28834;SDS011;15969;51.536;11.884;2023-06-22T03:02:55;15.10;;;13.07;;
28834;SDS011;15969;51.536;11.884;2023-06-22T03:05:22;16.97;;;13.30;;
28834;SDS011;15969;51.536;11.884;2023-06-22T03:07:48;16.13;;;14.47;;
28834;SDS011;15969;51.536;11.884;2023-06-22T03:10:14;18.80;;;14.73;;
28834;SDS011;15969;51.536;11.884;2023-06-22T03:12:40;17.10;;;15.00;;
28834;SDS011;15969;51.536;11.884;2023-06-22T03:15:08;19.77;;;16.53;;
28834;SDS011;15969;51.536;11.884;2023-06-22T03:17:37;16.30;;;14.60;;
28834;SDS011;15969;51.536;11.884;2023-06-22T03:20:04;22.63;;;16.80;;
28834;SDS011;15969;51.536;11.884;2023-06-22T03:22:43;18.17;;;16.33;;
28834;SDS011;15969;51.536;11.884;2023-06-22T03:25:09;18.97;;;15.70;;
28834;SDS011;15969;51.536;11.884;2023-06-22T03:27:42;22.03;;;17.17;;
28834;SDS011;15969;51.536;11.884;2023-06-22T03:30:09;20.60;;;16.37;;
28834;SDS011;15969;51.536;11.884;2023-06-22T03:32:36;23.73;;;17.07;;
28834;SDS011;15969;51.536;11.884;2023-06-22T03:35:02;19.67;;;15.97;;
28834;SDS011;15969;51.536;11.884;2023-06-22T03:37:28;19.27;;;17.30;;
28834;SDS011;15969;51.536;11.884;2023-06-22T03:39:54;19.53;;;16.73;;
28834;SDS011;15969;51.536;11.884;2023-06-22T03:42:20;20.43;;;17.00;;
28834;SDS011;15969;51.536;11.884;2023-06-22T03:44:45;19.27;;;17.30;;
28834;SDS011;15969;51.536;11.884;2023-06-22T03:47:12;20.37;;;18.07;;
28834;SDS011;15969;51.536;11.884;2023-06-22T03:49:37;22.43;;;18.40;;
28834;SDS011;15969;51.536;11.884;2023-06-22T03:52:03;20.40;;;18.23;;
28834;SDS011;15969;51.536;11.884;2023-06-22T03:54:30;22.67;;;18.03;;
28834;SDS011;15969;51.536;11.884;2023-06-22T03:56:56;20.20;;;18.00;;
28834;SDS011;15969;51.536;11.884;2023-06-22T03:59:22;21.47;;;18.37;;
28834;SDS011;15969;51.536;11.884;2023-06-22T04:01:48;24.30;;;18.70;;
28834;SDS011;15969;51.536;11.884;2023-06-22T04:04:15;19.37;;;17.57;;
28834;SDS011;15969;51.536;11.884;2023-06-22T04:06:42;20.80;;;17.97;;
28834;SDS011;15969;51.536;11.884;2023-06-22T04:09:08;20.80;;;18.80;;
28834;SDS011;15969;51.536;11.884;2023-06-22T04:11:33;21.07;;;18.90;;
28834;SDS011;15969;51.536;11.884;2023-06-22T04:13:59;21.57;;;19.43;;
28834;SDS011;15969;51.536;11.884;2023-06-22T04:16:25;20.87;;;19.07;;
28834;SDS011;15969;51.536;11.884;2023-06-22T04:18:51;22.00;;;19.80;;
28834;SDS011;15969;51.536;11.884;2023-06-22T04:21:16;21.50;;;19.47;;
28834;SDS011;15969;51.536;11.884;2023-06-22T04:23:44;22.77;;;20.20;;
28834;SDS011;15969;51.536;11.884;2023-06-22T04:26:11;22.20;;;19.87;;
28834;SDS011;15969;51.536;11.884;2023-06-22T04:28:38;21.30;;;19.43;;
28834;SDS011;15969;51.536;11.884;2023-06-22T04:31:04;22.47;;;20.13;;
28834;SDS011;15969;51.536;11.884;2023-06-22T04:33:30;23.10;;;19.80;;
28834;SDS011;15969;51.536;11.884;2023-06-22T04:35:56;22.37;;;20.37;;
28834;SDS011;15969;51.536;11.884;2023-06-22T04:38:22;21.40;;;19.60;;
28834;SDS011;15969;51.536;11.884;2023-06-22T04:40:49;22.80;;;20.60;;
28834;SDS011;15969;51.536;11.884;2023-06-22T04:43:15;22.47;;;20.33;;
28834;SDS011;15969;51.536;11.884;2023-06-22T04:45:41;21.30;;;19.40;;
28834;SDS011;15969;51.536;11.884;2023-06-22T04:48:07;21.40;;;19.40;;
28834;SDS011;15969;51.536;11.884;2023-06-22T04:50:41;20.50;;;18.37;;
28834;SDS011;15969;51.536;11.884;2023-06-22T04:53:07;21.43;;;19.43;;
28834;SDS011;15969;51.536;11.884;2023-06-22T04:55:34;23.30;;;21.13;;
28834;SDS011;15969;51.536;11.884;2023-06-22T04:58:02;26.80;;;20.67;;
28834;SDS011;15969;51.536;11.884;2023-06-22T05:00:29;24.50;;;21.70;;
28834;SDS011;15969;51.536;11.884;2023-06-22T05:02:56;28.03;;;25.53;;
28834;SDS011;15969;51.536;11.884;2023-06-22T05:05:22;21.77;;;19.63;;
28834;SDS011;15969;51.536;11.884;2023-06-22T05:07:49;21.50;;;19.70;;
28834;SDS011;15969;51.536;11.884;2023-06-22T05:10:18;22.17;;;18.57;;
28834;SDS011;15969;51.536;11.884;2023-06-22T05:12:45;19.90;;;17.70;;
28834;SDS011;15969;51.536;11.884;2023-06-22T05:15:11;18.43;;;16.57;;
28834;SDS011;15969;51.536;11.884;2023-06-22T05:17:37;17.93;;;15.40;;
28834;SDS011;15969;51.536;11.884;2023-06-22T05:20:08;27.10;;;15.47;;
28834;SDS011;15969;51.536;11.884;2023-06-22T05:22:38;17.00;;;15.13;;
28834;SDS011;15969;51.536;11.884;2023-06-22T05:25:08;17.60;;;15.57;;
28834;SDS011;15969;51.536;11.884;2023-06-22T05:27:36;17.00;;;15.30;;
28834;SDS011;15969;51.536;11.884;2023-06-22T05:30:04;17.33;;;15.50;;
28834;SDS011;15969;51.536;11.884;2023-06-22T05:32:31;17.53;;;15.03;;
28834;SDS011;15969;51.536;11.884;2023-06-22T05:34:58;22.57;;;18.57;;
28834;SDS011;15969;51.536;11.884;2023-06-22T05:37:24;20.63;;;17.80;;
28834;SDS011;15969;51.536;11.884;2023-06-22T05:39:50;16.23;;;14.53;;
28834;SDS011;15969;51.536;11.884;2023-06-22T05:42:15;17.77;;;16.07;;
28834;SDS011;15969;51.536;11.884;2023-06-22T05:44:41;17.73;;;16.13;;
28834;SDS011;15969;51.536;11.884;2023-06-22T05:47:07;18.80;;;16.87;;
28834;SDS011;15969;51.536;11.884;2023-06-22T05:49:33;17.77;;;16.00;;
28834;SDS011;15969;51.536;11.884;2023-06-22T05:51:58;19.53;;;17.03;;
28834;SDS011;15969;51.536;11.884;2023-06-22T05:54:25;19.20;;;16.23;;
28834;SDS011;15969;51.536;11.884;2023-06-22T05:56:52;18.73;;;16.87;;
28834;SDS011;15969;51.536;11.884;2023-06-22T05:59:18;18.60;;;15.93;;
28834;SDS011;15969;51.536;11.884;2023-06-22T06:01:44;18.83;;;17.17;;
28834;SDS011;15969;51.536;11.884;2023-06-22T06:04:11;19.07;;;17.07;;
28834;SDS011;15969;51.536;11.884;2023-06-22T06:06:37;18.70;;;16.90;;
28834;SDS011;15969;51.536;11.884;2023-06-22T06:09:03;19.00;;;17.03;;
28834;SDS011;15969;51.536;11.884;2023-06-22T06:11:29;19.97;;;18.13;;
28834;SDS011;15969;51.536;11.884;2023-06-22T06:13:55;18.63;;;16.83;;
28834;SDS011;15969;51.536;11.884;2023-06-22T06:16:21;18.60;;;16.70;;
28834;SDS011;15969;51.536;11.884;2023-06-22T06:18:47;18.33;;;16.63;;
28834;SDS011;15969;51.536;11.884;2023-06-22T06:21:16;17.50;;;16.00;;
28834;SDS011;15969;51.536;11.884;2023-06-22T06:23:42;18.20;;;16.30;;
28834;SDS011;15969;51.536;11.884;2023-06-22T06:26:08;19.27;;;16.47;;
28834;SDS011;15969;51.536;11.884;2023-06-22T06:28:34;16.63;;;14.43;;
28834;SDS011;15969;51.536;11.884;2023-06-22T06:31:00;18.13;;;16.07;;
28834;SDS011;15969;51.536;11.884;2023-06-22T06:33:26;17.03;;;15.43;;
28834;SDS011;15969;51.536;11.884;2023-06-22T06:35:51;17.00;;;15.27;;
28834;SDS011;15969;51.536;11.884;2023-06-22T06:38:17;17.60;;;14.57;;
28834;SDS011;15969;51.536;11.884;2023-06-22T06:40:43;17.40;;;15.23;;
28834;SDS011;15969;51.536;11.884;2023-06-22T06:43:10;16.27;;;14.53;;
28834;SDS011;15969;51.536;11.884;2023-06-22T06:45:35;16.63;;;13.90;;
28834;SDS011;15969;51.536;11.884;2023-06-22T06:48:01;15.33;;;12.70;;
28834;SDS011;15969;51.536;11.884;2023-06-22T06:50:27;14.27;;;13.07;;
28834;SDS011;15969;51.536;11.884;2023-06-22T06:52:53;14.53;;;13.23;;
28834;SDS011;15969;51.536;11.884;2023-06-22T06:55:19;14.63;;;13.43;;
28834;SDS011;15969;51.536;11.884;2023-06-22T06:57:45;13.97;;;12.80;;
28834;SDS011;15969;51.536;11.884;2023-06-22T07:00:13;14.73;;;12.73;;
28834;SDS011;15969;51.536;11.884;2023-06-22T07:02:40;14.50;;;13.30;;
28834;SDS011;15969;51.536;11.884;2023-06-22T07:05:08;15.30;;;13.77;;
28834;SDS011;15969;51.536;11.884;2023-06-22T07:07:36;13.93;;;12.63;;
28834;SDS011;15969;51.536;11.884;2023-06-22T07:10:02;14.87;;;12.67;;
28834;SDS011;15969;51.536;11.884;2023-06-22T07:12:30;15.00;;;13.63;;
28834;SDS011;15969;51.536;11.884;2023-06-22T07:15:01;14.50;;;13.20;;
28834;SDS011;15969;51.536;11.884;2023-06-22T07:17:35;14.90;;;13.23;;
28834;SDS011;15969;51.536;11.884;2023-06-22T07:20:01;14.20;;;12.80;;
28834;SDS011;15969;51.536;11.884;2023-06-22T07:22:32;14.67;;;13.37;;
28834;SDS011;15969;51.536;11.884;2023-06-22T07:24:58;13.90;;;12.70;;
28834;SDS011;15969;51.536;11.884;2023-06-22T07:27:24;14.57;;;13.13;;
28834;SDS011;15969;51.536;11.884;2023-06-22T07:29:49;15.13;;;13.40;;
28834;SDS011;15969;51.536;11.884;2023-06-22T07:32:15;14.47;;;13.17;;
28834;SDS011;15969;51.536;11.884;2023-06-22T07:34:41;14.07;;;12.87;;
28834;SDS011;15969;51.536;11.884;2023-06-22T07:37:07;14.07;;;12.77;;
28834;SDS011;15969;51.536;11.884;2023-06-22T07:39:33;15.27;;;13.80;;
28834;SDS011;15969;51.536;11.884;2023-06-22T07:41:59;14.33;;;13.03;;
28834;SDS011;15969;51.536;11.884;2023-06-22T07:44:24;14.30;;;13.03;;
28834;SDS011;15969;51.536;11.884;2023-06-22T07:46:50;13.93;;;12.60;;
28834;SDS011;15969;51.536;11.884;2023-06-22T07:49:16;14.17;;;12.77;;
28834;SDS011;15969;51.536;11.884;2023-06-22T07:51:42;13.70;;;12.43;;
28834;SDS011;15969;51.536;11.884;2023-06-22T07:54:08;14.00;;;12.70;;
28834;SDS011;15969;51.536;11.884;2023-06-22T07:56:36;13.00;;;11.80;;
28834;SDS011;15969;51.536;11.884;2023-06-22T07:59:02;14.70;;;13.33;;
28834;SDS011;15969;51.536;11.884;2023-06-22T08:01:28;13.37;;;12.17;;
28834;SDS011;15969;51.536;11.884;2023-06-22T08:03:54;13.20;;;12.10;;
28834;SDS011;15969;51.536;11.884;2023-06-22T08:06:20;13.30;;;12.20;;
28834;SDS011;15969;51.536;11.884;2023-06-22T08:08:46;12.73;;;11.53;;
28834;SDS011;15969;51.536;11.884;2023-06-22T08:11:13;12.00;;;11.10;;
28834;SDS011;15969;51.536;11.884;2023-06-22T08:13:39;13.30;;;12.00;;
28834;SDS011;15969;51.536;11.884;2023-06-22T08:16:04;12.80;;;11.50;;
28834;SDS011;15969;51.536;11.884;2023-06-22T08:18:30;12.17;;;11.07;;
28834;SDS011;15969;51.536;11.884;2023-06-22T08:20:56;13.23;;;11.93;;
28834;SDS011;15969;51.536;11.884;2023-06-22T08:23:21;13.00;;;12.00;;
28834;SDS011;15969;51.536;11.884;2023-06-22T08:25:47;13.90;;;12.63;;
28834;SDS011;15969;51.536;11.884;2023-06-22T08:28:15;14.90;;;12.03;;
28834;SDS011;15969;51.536;11.884;2023-06-22T08:30:40;12.60;;;11.50;;
28834;SDS011;15969;51.536;11.884;2023-06-22T08:33:06;12.97;;;11.80;;
28834;SDS011;15969;51.536;11.884;2023-06-22T08:35:32;13.93;;;12.50;;
28834;SDS011;15969;51.536;11.884;2023-06-22T08:37:57;13.23;;;11.67;;
28834;SDS011;15969;51.536;11.884;2023-06-22T08:40:24;12.77;;;11.77;;
28834;SDS011;15969;51.536;11.884;2023-06-22T08:42:50;12.77;;;11.67;;
28834;SDS011;15969;51.536;11.884;2023-06-22T08:45:16;12.27;;;11.27;;
28834;SDS011;15969;51.536;11.884;2023-06-22T08:47:41;12.23;;;11.10;;
28834;SDS011;15969;51.536;11.884;2023-06-22T08:50:11;11.67;;;10.67;;
28834;SDS011;15969;51.536;11.884;2023-06-22T08:52:37;11.93;;;10.83;;
28834;SDS011;15969;51.536;11.884;2023-06-22T08:55:06;12.40;;;11.40;;
28834;SDS011;15969;51.536;11.884;2023-06-22T08:57:33;12.20;;;11.20;;
28834;SDS011;15969;51.536;11.884;2023-06-22T08:59:59;13.47;;;11.27;;
28834;SDS011;15969;51.536;11.884;2023-06-22T09:02:28;11.03;;;10.03;;
28834;SDS011;15969;51.536;11.884;2023-06-22T09:04:58;12.23;;;10.93;;
28834;SDS011;15969;51.536;11.884;2023-06-22T09:07:29;12.30;;;11.40;;
28834;SDS011;15969;51.536;11.884;2023-06-22T09:09:56;13.13;;;11.70;;
28834;SDS011;15969;51.536;11.884;2023-06-22T09:12:22;12.83;;;11.40;;
28834;SDS011;15969;51.536;11.884;2023-06-22T09:14:50;12.37;;;11.27;;
28834;SDS011;15969;51.536;11.884;2023-06-22T09:17:16;12.17;;;10.87;;
28834;SDS011;15969;51.536;11.884;2023-06-22T09:19:42;10.53;;;9.73;;
28834;SDS011;15969;51.536;11.884;2023-06-22T09:22:08;10.63;;;9.63;;
28834;SDS011;15969;51.536;11.884;2023-06-22T09:24:33;12.00;;;10.87;;
28834;SDS011;15969;51.536;11.884;2023-06-22T09:26:59;11.00;;;10.10;;
28834;SDS011;15969;51.536;11.884;2023-06-22T09:29:25;11.27;;;10.03;;
28834;SDS011;15969;51.536;11.884;2023-06-22T09:31:50;10.90;;;9.87;;
28834;SDS011;15969;51.536;11.884;2023-06-22T09:34:18;12.63;;;9.30;;
28834;SDS011;15969;51.536;11.884;2023-06-22T09:36:45;11.03;;;10.03;;
28834;SDS011;15969;51.536;11.884;2023-06-22T09:39:11;10.53;;;9.63;;
28834;SDS011;15969;51.536;11.884;2023-06-22T09:41:37;10.13;;;9.17;;
28834;SDS011;15969;51.536;11.884;2023-06-22T09:44:03;10.43;;;9.63;;
28834;SDS011;15969;51.536;11.884;2023-06-22T09:46:28;10.83;;;9.83;;
28834;SDS011;15969;51.536;11.884;2023-06-22T09:48:54;10.30;;;9.40;;
28834;SDS011;15969;51.536;11.884;2023-06-22T09:51:20;9.30;;;8.60;;
28834;SDS011;15969;51.536;11.884;2023-06-22T09:53:46;8.90;;;8.10;;
28834;SDS011;15969;51.536;11.884;2023-06-22T09:56:12;8.73;;;7.93;;
28834;SDS011;15969;51.536;11.884;2023-06-22T09:58:43;9.87;;;9.00;;
28834;SDS011;15969;51.536;11.884;2023-06-22T10:01:11;9.40;;;8.50;;
28834;SDS011;15969;51.536;11.884;2023-06-22T10:03:37;9.97;;;9.07;;
28834;SDS011;15969;51.536;11.884;2023-06-22T10:06:03;8.83;;;8.13;;
28834;SDS011;15969;51.536;11.884;2023-06-22T10:08:28;9.50;;;8.60;;
28834;SDS011;15969;51.536;11.884;2023-06-22T10:10:54;9.63;;;8.73;;
28834;SDS011;15969;51.536;11.884;2023-06-22T10:13:20;9.40;;;8.70;;
28834;SDS011;15969;51.536;11.884;2023-06-22T10:15:45;9.50;;;8.67;;
28834;SDS011;15969;51.536;11.884;2023-06-22T10:18:16;8.80;;;8.10;;
28834;SDS011;15969;51.536;11.884;2023-06-22T10:20:42;10.10;;;9.30;;
28834;SDS011;15969;51.536;11.884;2023-06-22T10:23:08;10.57;;;8.73;;
28834;SDS011;15969;51.536;11.884;2023-06-22T10:25:33;8.83;;;7.80;;
28834;SDS011;15969;51.536;11.884;2023-06-22T10:27:59;9.50;;;8.60;;
28834;SDS011;15969;51.536;11.884;2023-06-22T10:30:25;9.13;;;8.33;;
28834;SDS011;15969;51.536;11.884;2023-06-22T10:32:51;8.20;;;7.50;;
28834;SDS011;15969;51.536;11.884;2023-06-22T10:35:16;8.73;;;7.83;;
28834;SDS011;15969;51.536;11.884;2023-06-22T10:37:45;8.20;;;7.50;;
28834;SDS011;15969;51.536;11.884;2023-06-22T10:40:15;8.50;;;7.80;;
28834;SDS011;15969;51.536;11.884;2023-06-22T10:42:41;8.53;;;7.10;;
28834;SDS011;15969;51.536;11.884;2023-06-22T10:45:07;9.87;;;8.43;;
28834;SDS011;15969;51.536;11.884;2023-06-22T10:47:34;7.97;;;7.20;;
28834;SDS011;15969;51.536;11.884;2023-06-22T10:50:00;9.07;;;8.17;;
28834;SDS011;15969;51.536;11.884;2023-06-22T10:52:26;10.50;;;8.40;;
28834;SDS011;15969;51.536;11.884;2023-06-22T10:54:52;8.70;;;7.90;;
28834;SDS011;15969;51.536;11.884;2023-06-22T10:57:18;8.83;;;7.80;;
28834;SDS011;15969;51.536;11.884;2023-06-22T10:59:44;7.80;;;7.10;;
28834;SDS011;15969;51.536;11.884;2023-06-22T11:02:09;7.70;;;7.00;;
28834;SDS011;15969;51.536;11.884;2023-06-22T11:04:36;7.77;;;6.93;;
28834;SDS011;15969;51.536;11.884;2023-06-22T11:07:01;7.50;;;6.80;;
28834;SDS011;15969;51.536;11.884;2023-06-22T11:09:27;7.47;;;6.60;;
28834;SDS011;15969;51.536;11.884;2023-06-22T11:11:53;6.87;;;6.23;;
28834;SDS011;15969;51.536;11.884;2023-06-22T11:14:21;7.40;;;6.47;;
28834;SDS011;15969;51.536;11.884;2023-06-22T11:16:47;7.30;;;6.60;;
28834;SDS011;15969;51.536;11.884;2023-06-22T11:19:13;7.03;;;6.43;;
28834;SDS011;15969;51.536;11.884;2023-06-22T11:21:38;7.30;;;6.70;;
28834;SDS011;15969;51.536;11.884;2023-06-22T11:24:04;7.50;;;6.53;;
28834;SDS011;15969;51.536;11.884;2023-06-22T11:26:30;14.77;;;8.00;;
28834;SDS011;15969;51.536;11.884;2023-06-22T11:28:59;6.93;;;6.23;;
28834;SDS011;15969;51.536;11.884;2023-06-22T11:31:24;7.60;;;7.00;;
28834;SDS011;15969;51.536;11.884;2023-06-22T11:33:50;6.73;;;6.23;;
28834;SDS011;15969;51.536;11.884;2023-06-22T11:36:16;6.67;;;6.00;;
28834;SDS011;15969;51.536;11.884;2023-06-22T11:38:43;6.90;;;6.30;;
28834;SDS011;15969;51.536;11.884;2023-06-22T11:41:09;6.83;;;6.20;;
28834;SDS011;15969;51.536;11.884;2023-06-22T11:43:36;6.53;;;6.00;;
28834;SDS011;15969;51.536;11.884;2023-06-22T11:46:02;7.97;;;6.40;;
28834;SDS011;15969;51.536;11.884;2023-06-22T11:48:29;6.67;;;6.17;;
28834;SDS011;15969;51.536;11.884;2023-06-22T11:50:55;6.73;;;6.23;;
28834;SDS011;15969;51.536;11.884;2023-06-22T11:53:21;9.23;;;6.10;;
28834;SDS011;15969;51.536;11.884;2023-06-22T11:55:49;7.60;;;6.47;;
28834;SDS011;15969;51.536;11.884;2023-06-22T11:58:15;6.83;;;6.13;;
28834;SDS011;15969;51.536;11.884;2023-06-22T12:00:41;7.17;;;5.70;;
28834;SDS011;15969;51.536;11.884;2023-06-22T12:03:07;6.60;;;6.10;;
28834;SDS011;15969;51.536;11.884;2023-06-22T12:05:34;6.47;;;5.90;;
28834;SDS011;15969;51.536;11.884;2023-06-22T12:08:00;8.93;;;6.80;;
28834;SDS011;15969;51.536;11.884;2023-06-22T12:10:26;7.20;;;6.50;;
28834;SDS011;15969;51.536;11.884;2023-06-22T12:12:55;7.37;;;6.47;;
28834;SDS011;15969;51.536;11.884;2023-06-22T12:15:22;9.33;;;7.17;;
28834;SDS011;15969;51.536;11.884;2023-06-22T12:17:48;7.23;;;6.60;;
28834;SDS011;15969;51.536;11.884;2023-06-22T12:20:14;7.03;;;6.40;;
28834;SDS011;15969;51.536;11.884;2023-06-22T12:22:40;7.40;;;6.70;;
28834;SDS011;15969;51.536;11.884;2023-06-22T12:25:07;7.53;;;6.83;;
28834;SDS011;15969;51.536;11.884;2023-06-22T12:27:33;7.13;;;6.63;;
28834;SDS011;15969;51.536;11.884;2023-06-22T12:30:00;7.77;;;7.10;;
28834;SDS011;15969;51.536;11.884;2023-06-22T12:32:26;7.17;;;6.53;;
28834;SDS011;15969;51.536;11.884;2023-06-22T12:34:52;7.33;;;6.63;;
28834;SDS011;15969;51.536;11.884;2023-06-22T12:37:18;7.60;;;6.80;;
28834;SDS011;15969;51.536;11.884;2023-06-22T12:39:44;6.70;;;6.20;;
28834;SDS011;15969;51.536;11.884;2023-06-22T12:42:09;7.60;;;7.00;;
28834;SDS011;15969;51.536;11.884;2023-06-22T12:44:37;7.27;;;6.60;;
28834;SDS011;15969;51.536;11.884;2023-06-22T12:47:04;7.97;;;6.70;;
28834;SDS011;15969;51.536;11.884;2023-06-22T12:49:30;8.27;;;6.50;;
28834;SDS011;15969;51.536;11.884;2023-06-22T12:51:56;7.53;;;6.20;;
28834;SDS011;15969;51.536;11.884;2023-06-22T12:54:22;7.10;;;6.50;;
28834;SDS011;15969;51.536;11.884;2023-06-22T12:56:49;8.93;;;6.77;;
28834;SDS011;15969;51.536;11.884;2023-06-22T12:59:15;8.03;;;7.23;;
28834;SDS011;15969;51.536;11.884;2023-06-22T13:01:42;7.20;;;6.50;;
28834;SDS011;15969;51.536;11.884;2023-06-22T13:04:08;8.57;;;6.77;;
28834;SDS011;15969;51.536;11.884;2023-06-22T13:06:36;6.87;;;6.30;;
28834;SDS011;15969;51.536;11.884;2023-06-22T13:09:01;6.73;;;6.00;;
28834;SDS011;15969;51.536;11.884;2023-06-22T13:11:30;8.87;;;6.97;;
28834;SDS011;15969;51.536;11.884;2023-06-22T13:13:55;7.47;;;6.73;;
28834;SDS011;15969;51.536;11.884;2023-06-22T13:16:21;7.73;;;7.13;;
28834;SDS011;15969;51.536;11.884;2023-06-22T13:18:47;7.47;;;6.77;;
28834;SDS011;15969;51.536;11.884;2023-06-22T13:21:13;7.73;;;7.03;;
28834;SDS011;15969;51.536;11.884;2023-06-22T13:23:39;7.53;;;6.90;;
28834;SDS011;15969;51.536;11.884;2023-06-22T13:26:04;7.50;;;6.83;;
28834;SDS011;15969;51.536;11.884;2023-06-22T13:28:30;7.27;;;6.57;;
28834;SDS011;15969;51.536;11.884;2023-06-22T13:30:57;11.10;;;10.10;;
28834;SDS011;15969;51.536;11.884;2023-06-22T13:33:22;8.37;;;7.67;;
28834;SDS011;15969;51.536;11.884;2023-06-22T13:35:48;7.43;;;6.60;;
28834;SDS011;15969;51.536;11.884;2023-06-22T13:38:14;9.63;;;8.65;;
28834;SDS011;15969;51.536;11.884;2023-06-22T13:40:40;8.67;;;6.23;;
28834;SDS011;15969;51.536;11.884;2023-06-22T13:43:06;7.77;;;6.97;;
28834;SDS011;15969;51.536;11.884;2023-06-22T13:45:32;8.07;;;7.00;;
28834;SDS011;15969;51.536;11.884;2023-06-22T13:47:58;8.17;;;6.67;;
28834;SDS011;15969;51.536;11.884;2023-06-22T13:50:24;8.63;;;7.87;;
28834;SDS011;15969;51.536;11.884;2023-06-22T13:52:49;7.90;;;6.30;;
28834;SDS011;15969;51.536;11.884;2023-06-22T13:55:15;8.77;;;7.05;;
28834;SDS011;15969;51.536;11.884;2023-06-22T13:57:41;10.43;;;6.57;;
28834;SDS011;15969;51.536;11.884;2023-06-22T14:00:07;9.15;;;7.35;;
28834;SDS011;15969;51.536;11.884;2023-06-22T14:02:34;7.23;;;6.27;;
28834;SDS011;15969;51.536;11.884;2023-06-22T14:05:00;7.77;;;6.97;;
28834;SDS011;15969;51.536;11.884;2023-06-22T14:07:27;7.73;;;6.60;;
28834;SDS011;15969;51.536;11.884;2023-06-22T14:09:53;7.80;;;7.00;;
28834;SDS011;15969;51.536;11.884;2023-06-22T14:12:18;7.43;;;6.67;;
28834;SDS011;15969;51.536;11.884;2023-06-22T14:14:44;7.13;;;6.47;;
28834;SDS011;15969;51.536;11.884;2023-06-22T14:17:10;7.70;;;7.10;;
28834;SDS011;15969;51.536;11.884;2023-06-22T14:19:35;9.20;;;7.13;;